sensor_id;sensor_type;location;lat;lon;timestamp;P1;durP1;ratioP1;P2;durP2;ratioP2
19521;SDS011;9905;52.126;5.596;2022-09-09T00:02:18;3.75;;;3.63;;
19521;SDS011;9905;52.126;5.596;2022-09-09T00:04:47;3.85;;;3.75;;
19521;SDS011;9905;52.126;5.596;2022-09-09T00:07:20;3.80;;;3.60;;
19521;SDS011;9905;52.126;5.596;2022-09-09T00:09:53;3.83;;;3.63;;
19521;SDS011;9905;52.126;5.596;2022-09-09T00:12:32;3.80;;;3.70;;
19521;SDS011;9905;52.126;5.596;2022-09-09T00:15:04;4.07;;;3.88;;
19521;SDS011;9905;52.126;5.596;2022-09-09T00:17:38;4.28;;;4.18;;
19521;SDS011;9905;52.126;5.596;2022-09-09T00:20:13;4.80;;;4.47;;
19521;SDS011;9905;52.126;5.596;2022-09-09T00:22:45;4.72;;;4.53;;
19521;SDS011;9905;52.126;5.596;2022-09-09T00:25:21;4.63;;;4.32;;
19521;SDS011;9905;52.126;5.596;2022-09-09T00:27:54;4.30;;;4.05;;
19521;SDS011;9905;52.126;5.596;2022-09-09T00:30:22;5.00;;;4.65;;
19521;SDS011;9905;52.126;5.596;2022-09-09T00:32:53;5.13;;;4.82;;
19521;SDS011;9905;52.126;5.596;2022-09-09T00:35:24;5.00;;;4.80;;
19521;SDS011;9905;52.126;5.596;2022-09-09T00:37:54;5.45;;;5.22;;
19521;SDS011;9905;52.126;5.596;2022-09-09T00:40:26;5.60;;;5.40;;
19521;SDS011;9905;52.126;5.596;2022-09-09T00:43:07;5.93;;;5.53;;
19521;SDS011;9905;52.126;5.596;2022-09-09T00:45:52;5.78;;;5.53;;
19521;SDS011;9905;52.126;5.596;2022-09-09T00:48:37;6.00;;;5.70;;
19521;SDS011;9905;52.126;5.596;2022-09-09T00:51:14;6.47;;;6.18;;
19521;SDS011;9905;52.126;5.596;2022-09-09T00:53:57;6.10;;;5.80;;
19521;SDS011;9905;52.126;5.596;2022-09-09T00:56:38;6.78;;;6.47;;
19521;SDS011;9905;52.126;5.596;2022-09-09T00:59:14;7.38;;;6.97;;
19521;SDS011;9905;52.126;5.596;2022-09-09T01:01:51;7.95;;;7.60;;
19521;SDS011;9905;52.126;5.596;2022-09-09T01:04:19;7.20;;;6.80;;
19521;SDS011;9905;52.126;5.596;2022-09-09T01:06:52;7.95;;;7.60;;
19521;SDS011;9905;52.126;5.596;2022-09-09T01:09:28;7.05;;;6.70;;
19521;SDS011;9905;52.126;5.596;2022-09-09T01:12:05;7.97;;;7.55;;
19521;SDS011;9905;52.126;5.596;2022-09-09T01:14:39;7.55;;;7.15;;
19521;SDS011;9905;52.126;5.596;2022-09-09T01:17:10;7.70;;;7.20;;
19521;SDS011;9905;52.126;5.596;2022-09-09T01:19:45;8.35;;;7.95;;
19521;SDS011;9905;52.126;5.596;2022-09-09T01:22:22;8.15;;;7.55;;
19521;SDS011;9905;52.126;5.596;2022-09-09T01:25:15;7.82;;;7.43;;
19521;SDS011;9905;52.126;5.596;2022-09-09T01:27:49;7.10;;;6.80;;
19521;SDS011;9905;52.126;5.596;2022-09-09T01:30:17;7.90;;;7.50;;
19521;SDS011;9905;52.126;5.596;2022-09-09T01:32:45;7.53;;;7.05;;
19521;SDS011;9905;52.126;5.596;2022-09-09T01:35:19;7.40;;;6.95;;
19521;SDS011;9905;52.126;5.596;2022-09-09T01:37:57;7.32;;;6.82;;
19521;SDS011;9905;52.126;5.596;2022-09-09T01:40:25;8.18;;;7.43;;
19521;SDS011;9905;52.126;5.596;2022-09-09T01:42:54;7.75;;;7.35;;
19521;SDS011;9905;52.126;5.596;2022-09-09T01:45:21;8.45;;;7.85;;
19521;SDS011;9905;52.126;5.596;2022-09-09T01:47:49;7.75;;;7.30;;
19521;SDS011;9905;52.126;5.596;2022-09-09T01:50:17;7.68;;;7.28;;
19521;SDS011;9905;52.126;5.596;2022-09-09T01:52:45;7.90;;;7.50;;
19521;SDS011;9905;52.126;5.596;2022-09-09T01:55:15;7.35;;;6.95;;
19521;SDS011;9905;52.126;5.596;2022-09-09T01:57:43;7.93;;;7.53;;
19521;SDS011;9905;52.126;5.596;2022-09-09T02:00:23;7.70;;;7.18;;
19521;SDS011;9905;52.126;5.596;2022-09-09T02:02:53;7.70;;;7.38;;
19521;SDS011;9905;52.126;5.596;2022-09-09T02:05:28;8.35;;;7.85;;
19521;SDS011;9905;52.126;5.596;2022-09-09T02:08:03;8.15;;;7.65;;
19521;SDS011;9905;52.126;5.596;2022-09-09T02:10:33;8.30;;;7.80;;
19521;SDS011;9905;52.126;5.596;2022-09-09T02:13:07;8.52;;;8.00;;
19521;SDS011;9905;52.126;5.596;2022-09-09T02:15:40;8.80;;;8.10;;
19521;SDS011;9905;52.126;5.596;2022-09-09T02:18:11;9.20;;;8.32;;
19521;SDS011;9905;52.126;5.596;2022-09-09T02:20:43;8.60;;;8.13;;
19521;SDS011;9905;52.126;5.596;2022-09-09T02:23:12;8.90;;;8.43;;
19521;SDS011;9905;52.126;5.596;2022-09-09T02:25:40;8.05;;;7.65;;
19521;SDS011;9905;52.126;5.596;2022-09-09T02:28:09;9.23;;;8.73;;
19521;SDS011;9905;52.126;5.596;2022-09-09T02:30:39;8.73;;;8.10;;
19521;SDS011;9905;52.126;5.596;2022-09-09T02:33:07;9.13;;;8.23;;
19521;SDS011;9905;52.126;5.596;2022-09-09T02:35:37;9.70;;;8.85;;
19521;SDS011;9905;52.126;5.596;2022-09-09T02:38:06;9.35;;;8.85;;
19521;SDS011;9905;52.126;5.596;2022-09-09T02:40:36;8.70;;;8.20;;
19521;SDS011;9905;52.126;5.596;2022-09-09T02:43:03;7.72;;;7.40;;
19521;SDS011;9905;52.126;5.596;2022-09-09T02:45:31;8.55;;;8.05;;
19521;SDS011;9905;52.126;5.596;2022-09-09T02:48:07;8.05;;;7.65;;
19521;SDS011;9905;52.126;5.596;2022-09-09T02:50:41;8.27;;;7.88;;
19521;SDS011;9905;52.126;5.596;2022-09-09T02:53:16;8.07;;;7.57;;
19521;SDS011;9905;52.126;5.596;2022-09-09T02:55:46;8.45;;;7.90;;
19521;SDS011;9905;52.126;5.596;2022-09-09T02:58:14;8.18;;;7.75;;
19521;SDS011;9905;52.126;5.596;2022-09-09T03:00:43;7.95;;;7.55;;
19521;SDS011;9905;52.126;5.596;2022-09-09T03:03:13;8.23;;;7.57;;
19521;SDS011;9905;52.126;5.596;2022-09-09T03:05:41;7.90;;;7.50;;
19521;SDS011;9905;52.126;5.596;2022-09-09T03:08:08;9.13;;;8.20;;
19521;SDS011;9905;52.126;5.596;2022-09-09T03:10:35;9.32;;;8.73;;
19521;SDS011;9905;52.126;5.596;2022-09-09T03:13:02;8.93;;;8.15;;
19521;SDS011;9905;52.126;5.596;2022-09-09T03:15:30;8.07;;;7.57;;
19521;SDS011;9905;52.126;5.596;2022-09-09T03:17:57;8.65;;;8.05;;
19521;SDS011;9905;52.126;5.596;2022-09-09T03:20:26;9.23;;;8.32;;
19521;SDS011;9905;52.126;5.596;2022-09-09T03:22:54;8.30;;;7.85;;
19521;SDS011;9905;52.126;5.596;2022-09-09T03:25:21;9.60;;;8.70;;
19521;SDS011;9905;52.126;5.596;2022-09-09T03:27:49;8.90;;;8.25;;
19521;SDS011;9905;52.126;5.596;2022-09-09T03:30:19;8.52;;;8.02;;
19521;SDS011;9905;52.126;5.596;2022-09-09T03:32:45;9.30;;;8.40;;
19521;SDS011;9905;52.126;5.596;2022-09-09T03:35:13;8.82;;;8.32;;
19521;SDS011;9905;52.126;5.596;2022-09-09T03:37:41;8.93;;;8.43;;
19521;SDS011;9905;52.126;5.596;2022-09-09T03:40:08;8.77;;;8.27;;
19521;SDS011;9905;52.126;5.596;2022-09-09T03:42:36;9.27;;;8.40;;
19521;SDS011;9905;52.126;5.596;2022-09-09T03:45:03;9.77;;;8.30;;
19521;SDS011;9905;52.126;5.596;2022-09-09T03:47:30;8.90;;;8.30;;
19521;SDS011;9905;52.126;5.596;2022-09-09T03:49:57;9.18;;;8.48;;
19521;SDS011;9905;52.126;5.596;2022-09-09T03:52:23;8.88;;;8.38;;
19521;SDS011;9905;52.126;5.596;2022-09-09T03:54:52;9.23;;;8.40;;
19521;SDS011;9905;52.126;5.596;2022-09-09T03:57:19;8.70;;;8.20;;
19521;SDS011;9905;52.126;5.596;2022-09-09T03:59:46;8.38;;;7.78;;
19521;SDS011;9905;52.126;5.596;2022-09-09T04:02:13;9.70;;;9.02;;
19521;SDS011;9905;52.126;5.596;2022-09-09T04:04:40;9.45;;;8.75;;
19521;SDS011;9905;52.126;5.596;2022-09-09T04:07:07;10.65;;;9.93;;
19521;SDS011;9905;52.126;5.596;2022-09-09T04:09:33;10.38;;;9.75;;
19521;SDS011;9905;52.126;5.596;2022-09-09T04:12:02;10.23;;;9.63;;
19521;SDS011;9905;52.126;5.596;2022-09-09T04:14:29;10.02;;;9.43;;
19521;SDS011;9905;52.126;5.596;2022-09-09T04:16:56;9.32;;;8.82;;
19521;SDS011;9905;52.126;5.596;2022-09-09T04:19:24;11.00;;;10.25;;
19521;SDS011;9905;52.126;5.596;2022-09-09T04:21:51;10.60;;;9.77;;
19521;SDS011;9905;52.126;5.596;2022-09-09T04:24:18;9.93;;;9.23;;
19521;SDS011;9905;52.126;5.596;2022-09-09T04:26:45;9.93;;;9.43;;
19521;SDS011;9905;52.126;5.596;2022-09-09T04:29:13;9.88;;;9.30;;
19521;SDS011;9905;52.126;5.596;2022-09-09T04:31:40;10.73;;;10.15;;
19521;SDS011;9905;52.126;5.596;2022-09-09T04:34:07;10.68;;;9.88;;
19521;SDS011;9905;52.126;5.596;2022-09-09T04:36:34;9.77;;;9.27;;
19521;SDS011;9905;52.126;5.596;2022-09-09T04:39:01;10.25;;;9.55;;
19521;SDS011;9905;52.126;5.596;2022-09-09T04:41:28;10.05;;;9.25;;
19521;SDS011;9905;52.126;5.596;2022-09-09T04:43:56;11.07;;;10.30;;
19521;SDS011;9905;52.126;5.596;2022-09-09T04:46:25;10.27;;;9.57;;
19521;SDS011;9905;52.126;5.596;2022-09-09T04:48:52;10.65;;;9.73;;
19521;SDS011;9905;52.126;5.596;2022-09-09T04:51:19;9.88;;;9.38;;
19521;SDS011;9905;52.126;5.596;2022-09-09T04:53:46;11.10;;;10.48;;
19521;SDS011;9905;52.126;5.596;2022-09-09T04:56:14;10.20;;;9.43;;
19521;SDS011;9905;52.126;5.596;2022-09-09T04:58:42;10.70;;;9.85;;
19521;SDS011;9905;52.126;5.596;2022-09-09T05:01:09;10.05;;;9.07;;
19521;SDS011;9905;52.126;5.596;2022-09-09T05:03:38;9.70;;;8.82;;
19521;SDS011;9905;52.126;5.596;2022-09-09T05:06:06;10.35;;;9.65;;
19521;SDS011;9905;52.126;5.596;2022-09-09T05:08:34;9.23;;;8.68;;
19521;SDS011;9905;52.126;5.596;2022-09-09T05:11:02;10.43;;;9.77;;
19521;SDS011;9905;52.126;5.596;2022-09-09T05:13:29;9.57;;;8.98;;
19521;SDS011;9905;52.126;5.596;2022-09-09T05:15:57;9.77;;;8.98;;
19521;SDS011;9905;52.126;5.596;2022-09-09T05:18:24;10.20;;;9.40;;
19521;SDS011;9905;52.126;5.596;2022-09-09T05:20:52;10.27;;;9.32;;
19521;SDS011;9905;52.126;5.596;2022-09-09T05:23:18;8.98;;;8.38;;
19521;SDS011;9905;52.126;5.596;2022-09-09T05:25:54;9.25;;;8.55;;
19521;SDS011;9905;52.126;5.596;2022-09-09T05:28:22;9.38;;;8.77;;
19521;SDS011;9905;52.126;5.596;2022-09-09T05:30:54;10.80;;;9.85;;
19521;SDS011;9905;52.126;5.596;2022-09-09T05:33:22;9.95;;;9.30;;
19521;SDS011;9905;52.126;5.596;2022-09-09T05:35:55;10.57;;;9.55;;
19521;SDS011;9905;52.126;5.596;2022-09-09T05:38:23;10.13;;;9.30;;
19521;SDS011;9905;52.126;5.596;2022-09-09T05:40:50;9.68;;;8.85;;
19521;SDS011;9905;52.126;5.596;2022-09-09T05:43:17;8.80;;;8.30;;
19521;SDS011;9905;52.126;5.596;2022-09-09T05:45:44;10.27;;;9.25;;
19521;SDS011;9905;52.126;5.596;2022-09-09T05:48:12;15.40;;;9.65;;
19521;SDS011;9905;52.126;5.596;2022-09-09T05:50:40;9.35;;;8.68;;
19521;SDS011;9905;52.126;5.596;2022-09-09T05:53:09;9.85;;;9.15;;
19521;SDS011;9905;52.126;5.596;2022-09-09T05:55:35;11.13;;;9.95;;
19521;SDS011;9905;52.126;5.596;2022-09-09T05:58:02;9.52;;;8.77;;
19521;SDS011;9905;52.126;5.596;2022-09-09T06:00:29;10.10;;;9.15;;
19521;SDS011;9905;52.126;5.596;2022-09-09T06:02:57;9.77;;;9.00;;
19521;SDS011;9905;52.126;5.596;2022-09-09T06:05:23;9.63;;;8.93;;
19521;SDS011;9905;52.126;5.596;2022-09-09T06:07:52;9.93;;;9.13;;
19521;SDS011;9905;52.126;5.596;2022-09-09T06:10:20;9.95;;;9.23;;
19521;SDS011;9905;52.126;5.596;2022-09-09T06:12:47;9.57;;;8.85;;
19521;SDS011;9905;52.126;5.596;2022-09-09T06:15:13;9.95;;;9.13;;
19521;SDS011;9905;52.126;5.596;2022-09-09T06:17:40;10.73;;;9.88;;
19521;SDS011;9905;52.126;5.596;2022-09-09T06:20:08;9.45;;;8.55;;
19521;SDS011;9905;52.126;5.596;2022-09-09T06:22:35;10.20;;;9.52;;
19521;SDS011;9905;52.126;5.596;2022-09-09T06:25:01;9.85;;;9.10;;
19521;SDS011;9905;52.126;5.596;2022-09-09T06:27:30;10.20;;;9.07;;
19521;SDS011;9905;52.126;5.596;2022-09-09T06:29:56;10.07;;;8.40;;
19521;SDS011;9905;52.126;5.596;2022-09-09T06:32:23;9.77;;;9.07;;
19521;SDS011;9905;52.126;5.596;2022-09-09T06:34:51;10.60;;;8.75;;
19521;SDS011;9905;52.126;5.596;2022-09-09T06:37:19;9.48;;;8.48;;
19521;SDS011;9905;52.126;5.596;2022-09-09T06:39:45;9.43;;;8.52;;
19521;SDS011;9905;52.126;5.596;2022-09-09T06:42:13;8.90;;;8.27;;
19521;SDS011;9905;52.126;5.596;2022-09-09T06:44:42;11.23;;;9.13;;
19521;SDS011;9905;52.126;5.596;2022-09-09T06:47:08;8.98;;;8.38;;
19521;SDS011;9905;52.126;5.596;2022-09-09T06:49:36;8.30;;;7.75;;
19521;SDS011;9905;52.126;5.596;2022-09-09T06:52:02;9.95;;;8.55;;
19521;SDS011;9905;52.126;5.596;2022-09-09T06:54:29;9.27;;;8.65;;
19521;SDS011;9905;52.126;5.596;2022-09-09T06:56:56;10.40;;;9.38;;
19521;SDS011;9905;52.126;5.596;2022-09-09T06:59:23;10.02;;;9.20;;
19521;SDS011;9905;52.126;5.596;2022-09-09T07:01:52;7.85;;;7.25;;
19521;SDS011;9905;52.126;5.596;2022-09-09T07:04:19;8.68;;;7.85;;
19521;SDS011;9905;52.126;5.596;2022-09-09T07:06:46;8.55;;;7.95;;
19521;SDS011;9905;52.126;5.596;2022-09-09T07:09:14;7.80;;;7.30;;
19521;SDS011;9905;52.126;5.596;2022-09-09T07:11:42;7.90;;;7.32;;
19521;SDS011;9905;52.126;5.596;2022-09-09T07:14:10;8.00;;;7.18;;
19521;SDS011;9905;52.126;5.596;2022-09-09T07:16:39;7.90;;;6.97;;
19521;SDS011;9905;52.126;5.596;2022-09-09T07:19:07;8.88;;;6.97;;
19521;SDS011;9905;52.126;5.596;2022-09-09T07:21:34;7.13;;;6.53;;
19521;SDS011;9905;52.126;5.596;2022-09-09T07:24:01;8.55;;;5.95;;
19521;SDS011;9905;52.126;5.596;2022-09-09T07:26:32;8.10;;;6.47;;
19521;SDS011;9905;52.126;5.596;2022-09-09T07:28:59;7.53;;;6.90;;
19521;SDS011;9905;52.126;5.596;2022-09-09T07:31:26;7.07;;;6.57;;
19521;SDS011;9905;52.126;5.596;2022-09-09T07:33:55;7.57;;;6.75;;
19521;SDS011;9905;52.126;5.596;2022-09-09T07:36:24;7.00;;;6.07;;
19521;SDS011;9905;52.126;5.596;2022-09-09T07:38:53;7.93;;;6.20;;
19521;SDS011;9905;52.126;5.596;2022-09-09T07:41:23;6.43;;;5.82;;
19521;SDS011;9905;52.126;5.596;2022-09-09T07:43:51;6.57;;;5.95;;
19521;SDS011;9905;52.126;5.596;2022-09-09T07:46:20;7.95;;;6.57;;
19521;SDS011;9905;52.126;5.596;2022-09-09T07:48:49;8.23;;;5.68;;
19521;SDS011;9905;52.126;5.596;2022-09-09T07:51:17;8.45;;;6.60;;
19521;SDS011;9905;52.126;5.596;2022-09-09T07:53:50;6.10;;;5.47;;
19521;SDS011;9905;52.126;5.596;2022-09-09T07:56:18;7.68;;;5.22;;
19521;SDS011;9905;52.126;5.596;2022-09-09T07:58:48;9.63;;;5.47;;
19521;SDS011;9905;52.126;5.596;2022-09-09T08:01:17;8.43;;;5.43;;
19521;SDS011;9905;52.126;5.596;2022-09-09T08:03:45;5.78;;;5.05;;
19521;SDS011;9905;52.126;5.596;2022-09-09T08:06:13;8.07;;;5.90;;
19521;SDS011;9905;52.126;5.596;2022-09-09T08:08:40;8.50;;;5.85;;
19521;SDS011;9905;52.126;5.596;2022-09-09T08:11:10;5.82;;;5.43;;
19521;SDS011;9905;52.126;5.596;2022-09-09T08:13:39;4.90;;;4.55;;
19521;SDS011;9905;52.126;5.596;2022-09-09T08:16:08;7.15;;;5.15;;
19521;SDS011;9905;52.126;5.596;2022-09-09T08:18:36;7.07;;;5.00;;
19521;SDS011;9905;52.126;5.596;2022-09-09T08:21:07;6.07;;;5.07;;
19521;SDS011;9905;52.126;5.596;2022-09-09T08:23:36;6.07;;;5.10;;
19521;SDS011;9905;52.126;5.596;2022-09-09T08:26:05;4.78;;;4.38;;
19521;SDS011;9905;52.126;5.596;2022-09-09T08:28:35;5.45;;;4.88;;
19521;SDS011;9905;52.126;5.596;2022-09-09T08:31:06;7.13;;;4.68;;
19521;SDS011;9905;52.126;5.596;2022-09-09T08:33:34;5.63;;;4.05;;
19521;SDS011;9905;52.126;5.596;2022-09-09T08:36:03;4.95;;;4.25;;
19521;SDS011;9905;52.126;5.596;2022-09-09T08:38:30;6.85;;;4.72;;
19521;SDS011;9905;52.126;5.596;2022-09-09T08:40:59;4.97;;;4.47;;
19521;SDS011;9905;52.126;5.596;2022-09-09T08:43:35;7.28;;;4.35;;
19521;SDS011;9905;52.126;5.596;2022-09-09T08:46:03;4.88;;;4.30;;
19521;SDS011;9905;52.126;5.596;2022-09-09T08:48:39;6.63;;;4.43;;
19521;SDS011;9905;52.126;5.596;2022-09-09T08:51:13;5.60;;;4.32;;
19521;SDS011;9905;52.126;5.596;2022-09-09T08:53:41;6.88;;;4.50;;
19521;SDS011;9905;52.126;5.596;2022-09-09T08:56:11;7.43;;;4.70;;
19521;SDS011;9905;52.126;5.596;2022-09-09T08:58:45;5.95;;;3.80;;
19521;SDS011;9905;52.126;5.596;2022-09-09T09:01:17;8.02;;;4.53;;
19521;SDS011;9905;52.126;5.596;2022-09-09T09:04:01;4.68;;;4.05;;
19521;SDS011;9905;52.126;5.596;2022-09-09T09:06:37;8.23;;;4.30;;
19521;SDS011;9905;52.126;5.596;2022-09-09T09:09:14;9.20;;;4.07;;
19521;SDS011;9905;52.126;5.596;2022-09-09T09:11:47;7.75;;;3.90;;
19521;SDS011;9905;52.126;5.596;2022-09-09T09:14:18;6.03;;;3.90;;
19521;SDS011;9905;52.126;5.596;2022-09-09T09:16:48;7.55;;;3.65;;
19521;SDS011;9905;52.126;5.596;2022-09-09T09:19:18;8.32;;;3.58;;
19521;SDS011;9905;52.126;5.596;2022-09-09T09:21:48;7.82;;;4.32;;
19521;SDS011;9905;52.126;5.596;2022-09-09T09:24:20;4.88;;;3.70;;
19521;SDS011;9905;52.126;5.596;2022-09-09T09:26:52;7.57;;;4.00;;
19521;SDS011;9905;52.126;5.596;2022-09-09T09:29:23;6.03;;;3.90;;
19521;SDS011;9905;52.126;5.596;2022-09-09T09:31:52;6.13;;;3.95;;
19521;SDS011;9905;52.126;5.596;2022-09-09T09:34:22;4.47;;;3.88;;
19521;SDS011;9905;52.126;5.596;2022-09-09T09:36:52;5.40;;;4.07;;
19521;SDS011;9905;52.126;5.596;2022-09-09T09:39:24;6.72;;;4.13;;
19521;SDS011;9905;52.126;5.596;2022-09-09T09:41:52;7.20;;;3.95;;
19521;SDS011;9905;52.126;5.596;2022-09-09T09:44:23;6.68;;;4.10;;
19521;SDS011;9905;52.126;5.596;2022-09-09T09:46:52;5.05;;;4.30;;
19521;SDS011;9905;52.126;5.596;2022-09-09T09:49:30;4.88;;;3.72;;
19521;SDS011;9905;52.126;5.596;2022-09-09T09:51:59;6.35;;;4.00;;
19521;SDS011;9905;52.126;5.596;2022-09-09T09:54:27;7.43;;;3.17;;
19521;SDS011;9905;52.126;5.596;2022-09-09T09:56:55;4.63;;;3.38;;
19521;SDS011;9905;52.126;5.596;2022-09-09T09:59:32;4.28;;;3.53;;
19521;SDS011;9905;52.126;5.596;2022-09-09T10:02:13;5.45;;;3.88;;
19521;SDS011;9905;52.126;5.596;2022-09-09T10:04:42;5.50;;;3.72;;
19521;SDS011;9905;52.126;5.596;2022-09-09T10:07:10;6.32;;;3.72;;
19521;SDS011;9905;52.126;5.596;2022-09-09T10:09:37;5.43;;;4.10;;
19521;SDS011;9905;52.126;5.596;2022-09-09T10:12:06;4.90;;;3.30;;
19521;SDS011;9905;52.126;5.596;2022-09-09T10:14:44;6.88;;;3.65;;
19521;SDS011;9905;52.126;5.596;2022-09-09T10:17:19;6.63;;;4.18;;
19521;SDS011;9905;52.126;5.596;2022-09-09T10:19:55;5.53;;;4.30;;
19521;SDS011;9905;52.126;5.596;2022-09-09T10:22:36;6.80;;;3.63;;
19521;SDS011;9905;52.126;5.596;2022-09-09T10:28:20;6.47;;;4.00;;
19521;SDS011;9905;52.126;5.596;2022-09-09T10:31:02;5.28;;;4.13;;
19521;SDS011;9905;52.126;5.596;2022-09-09T10:33:40;4.53;;;3.50;;
19521;SDS011;9905;52.126;5.596;2022-09-09T10:36:16;4.80;;;3.42;;
19521;SDS011;9905;52.126;5.596;2022-09-09T10:38:47;4.45;;;3.35;;
19521;SDS011;9905;52.126;5.596;2022-09-09T10:41:19;6.53;;;3.92;;
19521;SDS011;9905;52.126;5.596;2022-09-09T10:44:04;7.80;;;3.80;;
19521;SDS011;9905;52.126;5.596;2022-09-09T10:46:58;3.80;;;3.40;;
19521;SDS011;9905;52.126;5.596;2022-09-09T10:49:54;4.57;;;3.70;;
19521;SDS011;9905;52.126;5.596;2022-09-09T10:52:32;7.10;;;4.63;;
19521;SDS011;9905;52.126;5.596;2022-09-09T10:55:08;6.38;;;5.57;;
19521;SDS011;9905;52.126;5.596;2022-09-09T10:57:40;6.47;;;5.85;;
19521;SDS011;9905;52.126;5.596;2022-09-09T11:00:14;7.38;;;6.20;;
19521;SDS011;9905;52.126;5.596;2022-09-09T11:02:45;6.93;;;6.45;;
19521;SDS011;9905;52.126;5.596;2022-09-09T11:05:16;7.75;;;7.15;;
19521;SDS011;9905;52.126;5.596;2022-09-09T11:07:47;9.35;;;6.95;;
19521;SDS011;9905;52.126;5.596;2022-09-09T11:10:19;8.43;;;7.65;;
19521;SDS011;9905;52.126;5.596;2022-09-09T11:12:50;8.15;;;6.68;;
19521;SDS011;9905;52.126;5.596;2022-09-09T11:15:22;8.68;;;7.97;;
19521;SDS011;9905;52.126;5.596;2022-09-09T11:17:58;9.02;;;7.88;;
19521;SDS011;9905;52.126;5.596;2022-09-09T11:20:27;9.05;;;8.15;;
19521;SDS011;9905;52.126;5.596;2022-09-09T11:22:55;9.68;;;8.80;;
19521;SDS011;9905;52.126;5.596;2022-09-09T11:25:27;10.38;;;9.60;;
19521;SDS011;9905;52.126;5.596;2022-09-09T11:28:13;12.27;;;9.35;;
19521;SDS011;9905;52.126;5.596;2022-09-09T11:30:53;9.50;;;8.77;;
19521;SDS011;9905;52.126;5.596;2022-09-09T11:33:37;8.48;;;7.78;;
19521;SDS011;9905;52.126;5.596;2022-09-09T11:36:19;8.23;;;7.47;;
19521;SDS011;9905;52.126;5.596;2022-09-09T11:38:56;8.63;;;7.82;;
19521;SDS011;9905;52.126;5.596;2022-09-09T11:41:32;8.27;;;7.68;;
19521;SDS011;9905;52.126;5.596;2022-09-09T11:44:08;7.55;;;6.85;;
19521;SDS011;9905;52.126;5.596;2022-09-09T11:46:37;8.07;;;7.45;;
19521;SDS011;9905;52.126;5.596;2022-09-09T11:51:56;7.15;;;6.60;;
19521;SDS011;9905;52.126;5.596;2022-09-09T11:54:29;8.02;;;6.30;;
19521;SDS011;9905;52.126;5.596;2022-09-09T11:56:58;6.70;;;6.10;;
19521;SDS011;9905;52.126;5.596;2022-09-09T11:59:26;6.53;;;5.93;;
19521;SDS011;9905;52.126;5.596;2022-09-09T12:01:55;5.93;;;5.63;;
19521;SDS011;9905;52.126;5.596;2022-09-09T12:04:28;8.80;;;6.50;;
19521;SDS011;9905;52.126;5.596;2022-09-09T12:07:03;7.65;;;5.45;;
19521;SDS011;9905;52.126;5.596;2022-09-09T12:09:33;8.05;;;5.63;;
19521;SDS011;9905;52.126;5.596;2022-09-09T12:12:21;5.40;;;4.90;;
19521;SDS011;9905;52.126;5.596;2022-09-09T12:14:57;5.18;;;4.70;;
19521;SDS011;9905;52.126;5.596;2022-09-09T12:17:43;5.55;;;5.05;;
19521;SDS011;9905;52.126;5.596;2022-09-09T12:20:14;5.82;;;5.28;;
19521;SDS011;9905;52.126;5.596;2022-09-09T12:22:48;5.07;;;4.68;;
19521;SDS011;9905;52.126;5.596;2022-09-09T12:25:26;4.40;;;3.78;;
19521;SDS011;9905;52.126;5.596;2022-09-09T12:28:01;4.60;;;4.28;;
19521;SDS011;9905;52.126;5.596;2022-09-09T12:30:33;5.85;;;5.20;;
19521;SDS011;9905;52.126;5.596;2022-09-09T12:33:08;5.85;;;5.35;;
19521;SDS011;9905;52.126;5.596;2022-09-09T12:35:40;5.93;;;5.60;;
19521;SDS011;9905;52.126;5.596;2022-09-09T12:38:10;6.93;;;6.32;;
19521;SDS011;9905;52.126;5.596;2022-09-09T12:40:41;6.32;;;5.93;;
19521;SDS011;9905;52.126;5.596;2022-09-09T12:43:16;6.35;;;5.65;;
19521;SDS011;9905;52.126;5.596;2022-09-09T12:45:44;5.78;;;5.47;;
19521;SDS011;9905;52.126;5.596;2022-09-09T12:48:12;6.10;;;5.63;;
19521;SDS011;9905;52.126;5.596;2022-09-09T12:50:45;6.38;;;5.88;;
19521;SDS011;9905;52.126;5.596;2022-09-09T12:53:17;6.95;;;6.30;;
19521;SDS011;9905;52.126;5.596;2022-09-09T12:55:52;5.75;;;5.22;;
19521;SDS011;9905;52.126;5.596;2022-09-09T12:58:21;5.90;;;5.30;;
19521;SDS011;9905;52.126;5.596;2022-09-09T13:00:48;5.25;;;4.95;;
19521;SDS011;9905;52.126;5.596;2022-09-09T13:03:17;5.57;;;5.28;;
19521;SDS011;9905;52.126;5.596;2022-09-09T13:05:47;5.95;;;5.30;;
19521;SDS011;9905;52.126;5.596;2022-09-09T13:08:15;5.55;;;5.13;;
19521;SDS011;9905;52.126;5.596;2022-09-09T13:10:46;5.90;;;5.35;;
19521;SDS011;9905;52.126;5.596;2022-09-09T13:13:19;5.63;;;4.60;;
19521;SDS011;9905;52.126;5.596;2022-09-09T13:15:48;4.80;;;4.40;;
19521;SDS011;9905;52.126;5.596;2022-09-09T13:18:17;4.72;;;4.35;;
19521;SDS011;9905;52.126;5.596;2022-09-09T13:20:49;4.53;;;4.20;;
19521;SDS011;9905;52.126;5.596;2022-09-09T13:23:18;5.20;;;4.80;;
19521;SDS011;9905;52.126;5.596;2022-09-09T13:25:52;5.13;;;4.65;;
19521;SDS011;9905;52.126;5.596;2022-09-09T13:28:21;5.15;;;4.68;;
19521;SDS011;9905;52.126;5.596;2022-09-09T13:30:55;5.15;;;4.63;;
19521;SDS011;9905;52.126;5.596;2022-09-09T13:33:28;4.57;;;4.28;;
19521;SDS011;9905;52.126;5.596;2022-09-09T13:35:57;6.25;;;4.85;;
19521;SDS011;9905;52.126;5.596;2022-09-09T13:38:28;4.95;;;4.53;;
19521;SDS011;9905;52.126;5.596;2022-09-09T13:40:57;5.55;;;4.88;;
19521;SDS011;9905;52.126;5.596;2022-09-09T13:43:27;4.93;;;4.65;;
19521;SDS011;9905;52.126;5.596;2022-09-09T13:45:55;4.50;;;4.20;;
19521;SDS011;9905;52.126;5.596;2022-09-09T13:48:24;5.82;;;4.85;;
19521;SDS011;9905;52.126;5.596;2022-09-09T13:50:55;5.47;;;4.97;;
19521;SDS011;9905;52.126;5.596;2022-09-09T13:53:25;4.70;;;4.40;;
19521;SDS011;9905;52.126;5.596;2022-09-09T13:55:51;4.95;;;4.45;;
19521;SDS011;9905;52.126;5.596;2022-09-09T13:58:19;5.22;;;4.82;;
19521;SDS011;9905;52.126;5.596;2022-09-09T14:00:47;5.82;;;4.25;;
19521;SDS011;9905;52.126;5.596;2022-09-09T14:03:14;4.57;;;4.28;;
19521;SDS011;9905;52.126;5.596;2022-09-09T14:05:41;4.72;;;4.25;;
19521;SDS011;9905;52.126;5.596;2022-09-09T14:08:14;4.47;;;3.97;;
19521;SDS011;9905;52.126;5.596;2022-09-09T14:10:44;5.90;;;4.30;;
19521;SDS011;9905;52.126;5.596;2022-09-09T14:13:11;4.40;;;4.13;;
19521;SDS011;9905;52.126;5.596;2022-09-09T14:15:38;4.55;;;4.15;;
19521;SDS011;9905;52.126;5.596;2022-09-09T14:18:08;4.15;;;3.85;;
19521;SDS011;9905;52.126;5.596;2022-09-09T14:20:37;4.53;;;3.90;;
19521;SDS011;9905;52.126;5.596;2022-09-09T14:23:04;4.32;;;3.63;;
19521;SDS011;9905;52.126;5.596;2022-09-09T14:25:32;4.97;;;4.63;;
19521;SDS011;9905;52.126;5.596;2022-09-09T14:27:59;4.10;;;3.80;;
19521;SDS011;9905;52.126;5.596;2022-09-09T14:30:26;5.05;;;3.67;;
19521;SDS011;9905;52.126;5.596;2022-09-09T14:32:53;3.72;;;3.20;;
19521;SDS011;9905;52.126;5.596;2022-09-09T14:35:20;3.83;;;3.53;;
19521;SDS011;9905;52.126;5.596;2022-09-09T14:37:47;3.88;;;3.58;;
19521;SDS011;9905;52.126;5.596;2022-09-09T14:40:14;3.58;;;3.17;;
19521;SDS011;9905;52.126;5.596;2022-09-09T14:42:42;4.13;;;3.75;;
19521;SDS011;9905;52.126;5.596;2022-09-09T14:45:10;4.35;;;3.85;;
19521;SDS011;9905;52.126;5.596;2022-09-09T14:47:37;3.40;;;3.10;;
19521;SDS011;9905;52.126;5.596;2022-09-09T14:50:04;4.65;;;3.53;;
19521;SDS011;9905;52.126;5.596;2022-09-09T14:52:33;3.55;;;3.35;;
19521;SDS011;9905;52.126;5.596;2022-09-09T14:54:59;3.47;;;3.20;;
19521;SDS011;9905;52.126;5.596;2022-09-09T14:57:26;4.75;;;4.30;;
19521;SDS011;9905;52.126;5.596;2022-09-09T14:59:54;4.38;;;3.85;;
19521;SDS011;9905;52.126;5.596;2022-09-09T15:02:21;4.28;;;3.88;;
19521;SDS011;9905;52.126;5.596;2022-09-09T15:04:48;4.18;;;3.97;;
19521;SDS011;9905;52.126;5.596;2022-09-09T15:07:16;3.92;;;3.70;;
19521;SDS011;9905;52.126;5.596;2022-09-09T15:09:44;4.55;;;4.05;;
19521;SDS011;9905;52.126;5.596;2022-09-09T15:12:12;6.05;;;4.10;;
19521;SDS011;9905;52.126;5.596;2022-09-09T15:14:39;4.10;;;3.72;;
19521;SDS011;9905;52.126;5.596;2022-09-09T15:17:07;4.32;;;4.00;;
19521;SDS011;9905;52.126;5.596;2022-09-09T15:19:34;4.03;;;3.70;;
19521;SDS011;9905;52.126;5.596;2022-09-09T15:22:02;5.75;;;3.90;;
19521;SDS011;9905;52.126;5.596;2022-09-09T15:24:30;3.85;;;3.50;;
19521;SDS011;9905;52.126;5.596;2022-09-09T15:26:57;3.38;;;3.08;;